Silk Purse — WDH8874 — position and weather

sailwx.info

Track history (hours):
 
Tides and Currents Weather Stations Pressure Air Temp Water Temp Dewpoint Dewpoint Depression Visibility Wind Speed Wind Dir Waves Ship Positions

Silk Purse

Owner: Holsberger, James T, Mission, KS. More information available from US FCC via Universal Licensing System and Coast Guard Vessel Documentation Center.

Last reported at 2017-Sep-19 21:56 UTC. Time now 2017-Sep-24 14:12 UTC.
Position N 33°44' W 118°10'.

Length 10 m.

Type: Sailing vessel. MMSI: 367662380.

Date/timePositionNaut miles runAvg speedWind from/ knotsBaromVisibWave heightAir tempDewpointWater temp
2017-Sep-19 21:56N 33°44' W 118°10'2 4.2
2017-Sep-19 21:24N 33°43' W 118°13'2 4.2
2017-Sep-19 21:00N 33°43' W 118°15'  
2017-Sep-14 19:33N 34°06' W 119°11'0 3.4
2017-Sep-14 19:26N 34°06' W 119°12'3 0.2
2017-Sep-13 21:27N 34°09' W 119°14'1 2.9
2017-Sep-13 20:59N 34°09' W 119°15'2 4.0
2017-Sep-13 20:26N 34°08' W 119°18'2 4.2
2017-Sep-13 20:00N 34°08' W 119°20'2 4.2
2017-Sep-13 19:30N 34°07' W 119°22'2 3.9
2017-Sep-13 18:53N 34°05' W 119°25'1 3.7
2017-Sep-13 18:29N 34°04' W 119°26'2 3.5
2017-Sep-13 17:58N 34°03' W 119°28'1 3.1
2017-Sep-13 17:30N 34°02' W 119°29'2 0.1
2017-Sep-13 01:55N 34°02' W 119°31'2 5.7
2017-Sep-13 01:30N 34°04' W 119°33'3 5.2
2017-Sep-13 00:58N 34°03' W 119°36'2 4.7
2017-Sep-13 00:30N 34°02' W 119°38'2 4.2
2017-Sep-12 23:55N 34°01' W 119°41'0 0.0
2017-Sep-12 23:28N 34°01' W 119°41'0 0.0
2017-Sep-12 22:25N 34°01' W 119°41'0 0.0
2017-Sep-12 21:58N 34°01' W 119°41'0 0.0
2017-Sep-12 21:28N 34°01' W 119°41'0 0.0
2017-Sep-12 20:49N 34°01' W 119°41'0 0.0
2017-Sep-12 20:28N 34°01' W 119°41'0 0.0
2017-Sep-12 19:52N 34°01' W 119°41'0 0.0
2017-Sep-12 19:28N 34°01' W 119°41'0 0.0
2017-Sep-12 18:55N 34°01' W 119°41'0 0.0
2017-Sep-12 18:28N 34°01' W 119°41'0 0.0
2017-Sep-12 17:58N 34°01' W 119°41'0 0.0
2017-Sep-12 17:22N 34°01' W 119°41'0 0.0
2017-Sep-12 16:58N 34°01' W 119°41'0 0.0
2017-Sep-12 16:25N 34°01' W 119°41'0 0.0
2017-Sep-12 15:58N 34°01' W 119°41'0 0.0
2017-Sep-12 15:28N 34°01' W 119°41'0 0.0
2017-Sep-12 14:58N 34°01' W 119°41'0 0.0
2017-Sep-12 14:28N 34°01' W 119°41'0 0.0
2017-Sep-12 13:58N 34°01' W 119°41'0 0.0
2017-Sep-12 13:28N 34°01' W 119°41'0 0.0
2017-Sep-12 12:58N 34°01' W 119°41'0 0.0
2017-Sep-12 12:25N 34°01' W 119°41'0 0.0
2017-Sep-12 11:52N 34°01' W 119°41'0 0.0
2017-Sep-12 11:28N 34°01' W 119°41'0 0.0
2017-Sep-12 10:55N 34°01' W 119°41'0 0.0
2017-Sep-12 10:28N 34°01' W 119°41'0 0.0
2017-Sep-12 09:58N 34°01' W 119°41'0 0.0
2017-Sep-12 09:28N 34°01' W 119°41'0 0.0
2017-Sep-12 08:58N 34°01' W 119°41'0 0.0
2017-Sep-12 08:28N 34°01' W 119°41'0 0.0
2017-Sep-12 07:58N 34°01' W 119°41'0 0.0
2017-Sep-12 07:28N 34°01' W 119°41'0 0.0
2017-Sep-12 06:58N 34°01' W 119°41'0 0.0
2017-Sep-12 06:28N 34°01' W 119°41'0 0.0
2017-Sep-12 05:58N 34°01' W 119°41'0 0.0
2017-Sep-12 05:28N 34°01' W 119°41'0 0.0
2017-Sep-12 04:58N 34°01' W 119°41'0 0.0
2017-Sep-12 04:25N 34°01' W 119°41'0 0.0
2017-Sep-12 03:58N 34°01' W 119°41'0 0.0
2017-Sep-12 03:25N 34°01' W 119°41'0 0.0
2017-Sep-12 02:55N 34°01' W 119°41'0 0.0
2017-Sep-12 02:25N 34°01' W 119°41'0 0.0
2017-Sep-12 01:58N 34°01' W 119°41'0 0.0
2017-Sep-12 01:19N 34°01' W 119°41'0 0.0
2017-Sep-12 00:58N 34°01' W 119°41'0 0.0
2017-Sep-12 00:28N 34°01' W 119°41'0 0.0
2017-Sep-11 23:58N 34°01' W 119°41'1 2.9
2017-Sep-11 23:27N 34°03' W 119°41'2 5.2
2017-Sep-11 23:00N 34°05' W 119°41'2 4.4
2017-Sep-11 22:29N 34°07' W 119°41'3 5.3
2017-Sep-11 21:58N 34°10' W 119°41'2 4.6
2017-Sep-11 21:27N 34°12' W 119°41'3 4.6
2017-Sep-11 20:44N 34°16' W 119°42'1 3.6
2017-Sep-11 20:30N 34°16' W 119°41'3 4.2
2017-Sep-11 19:52N 34°19' W 119°42'2 3.0
2017-Sep-11 19:08N 34°21' W 119°41'0 2.5
2017-Sep-11 18:57N 34°22' W 119°41'2 3.0
2017-Sep-11 18:23N 34°23' W 119°41'1 1.5
2017-Sep-11 17:54N 34°24' W 119°41'1 0.0
2017-Sep-10 17:10N 34°24' W 119°41'0 0.1
2017-Sep-10 16:48N 34°24' W 119°42'1 0.1
2017-Sep-10 05:38N 34°25' W 119°41'0 0.0
2017-Sep-10 05:23N 34°25' W 119°41'0 0.0
2017-Sep-10 04:08N 34°25' W 119°41'0 0.0
2017-Sep-10 03:56N 34°25' W 119°41'0 0.0
2017-Sep-10 02:47N 34°25' W 119°41'0 0.0
2017-Sep-10 02:14N 34°25' W 119°41'  
Track history (hours):
 
Tides and Currents Weather Stations Pressure Air Temp Water Temp Dewpoint Dewpoint Depression Visibility Wind Speed Wind Dir Waves Ship Positions

Silk Purse

Owner: Holsberger, James T, Mission, KS. More information available from US FCC via Universal Licensing System and Coast Guard Vessel Documentation Center.

Last reported at 2017-Sep-19 21:56 UTC. Time now 2017-Sep-24 14:12 UTC.
Position N 33°44' W 118°10'.

Length 10 m.

Type: Sailing vessel. MMSI: 367662380.

Date/timePositionNaut miles runAvg speedWind from/ knotsBaromVisibWave heightAir tempDewpointWater temp
2017-Sep-19 21:56N 33°44' W 118°10'2 4.2
2017-Sep-19 21:24N 33°43' W 118°13'2 4.2
2017-Sep-19 21:00N 33°43' W 118°15'  
2017-Sep-14 19:33N 34°06' W 119°11'0 3.4
2017-Sep-14 19:26N 34°06' W 119°12'3 0.2
2017-Sep-13 21:27N 34°09' W 119°14'1 2.9
2017-Sep-13 20:59N 34°09' W 119°15'2 4.0
2017-Sep-13 20:26N 34°08' W 119°18'2 4.2
2017-Sep-13 20:00N 34°08' W 119°20'2 4.2
2017-Sep-13 19:30N 34°07' W 119°22'2 3.9
2017-Sep-13 18:53N 34°05' W 119°25'1 3.7
2017-Sep-13 18:29N 34°04' W 119°26'2 3.5
2017-Sep-13 17:58N 34°03' W 119°28'1 3.1
2017-Sep-13 17:30N 34°02' W 119°29'2 0.1
2017-Sep-13 01:55N 34°02' W 119°31'2 5.7
2017-Sep-13 01:30N 34°04' W 119°33'3 5.2
2017-Sep-13 00:58N 34°03' W 119°36'2 4.7
2017-Sep-13 00:30N 34°02' W 119°38'2 4.2
2017-Sep-12 23:55N 34°01' W 119°41'0 0.0
2017-Sep-12 23:28N 34°01' W 119°41'0 0.0
2017-Sep-12 22:25N 34°01' W 119°41'0 0.0
2017-Sep-12 21:58N 34°01' W 119°41'0 0.0
2017-Sep-12 21:28N 34°01' W 119°41'0 0.0
2017-Sep-12 20:49N 34°01' W 119°41'0 0.0
2017-Sep-12 20:28N 34°01' W 119°41'0 0.0
2017-Sep-12 19:52N 34°01' W 119°41'0 0.0
2017-Sep-12 19:28N 34°01' W 119°41'0 0.0
2017-Sep-12 18:55N 34°01' W 119°41'0 0.0
2017-Sep-12 18:28N 34°01' W 119°41'0 0.0
2017-Sep-12 17:58N 34°01' W 119°41'0 0.0
2017-Sep-12 17:22N 34°01' W 119°41'0 0.0
2017-Sep-12 16:58N 34°01' W 119°41'0 0.0
2017-Sep-12 16:25N 34°01' W 119°41'0 0.0
2017-Sep-12 15:58N 34°01' W 119°41'0 0.0
2017-Sep-12 15:28N 34°01' W 119°41'0 0.0
2017-Sep-12 14:58N 34°01' W 119°41'0 0.0
2017-Sep-12 14:28N 34°01' W 119°41'0 0.0
2017-Sep-12 13:58N 34°01' W 119°41'0 0.0
2017-Sep-12 13:28N 34°01' W 119°41'0 0.0
2017-Sep-12 12:58N 34°01' W 119°41'0 0.0
2017-Sep-12 12:25N 34°01' W 119°41'0 0.0
2017-Sep-12 11:52N 34°01' W 119°41'0 0.0
2017-Sep-12 11:28N 34°01' W 119°41'0 0.0
2017-Sep-12 10:55N 34°01' W 119°41'0 0.0
2017-Sep-12 10:28N 34°01' W 119°41'0 0.0
2017-Sep-12 09:58N 34°01' W 119°41'0 0.0
2017-Sep-12 09:28N 34°01' W 119°41'0 0.0
2017-Sep-12 08:58N 34°01' W 119°41'0 0.0
2017-Sep-12 08:28N 34°01' W 119°41'0 0.0
2017-Sep-12 07:58N 34°01' W 119°41'0 0.0
2017-Sep-12 07:28N 34°01' W 119°41'0 0.0
2017-Sep-12 06:58N 34°01' W 119°41'0 0.0
2017-Sep-12 06:28N 34°01' W 119°41'0 0.0
2017-Sep-12 05:58N 34°01' W 119°41'0 0.0
2017-Sep-12 05:28N 34°01' W 119°41'0 0.0
2017-Sep-12 04:58N 34°01' W 119°41'0 0.0
2017-Sep-12 04:25N 34°01' W 119°41'0 0.0
2017-Sep-12 03:58N 34°01' W 119°41'0 0.0
2017-Sep-12 03:25N 34°01' W 119°41'0 0.0
2017-Sep-12 02:55N 34°01' W 119°41'0 0.0
2017-Sep-12 02:25N 34°01' W 119°41'0 0.0
2017-Sep-12 01:58N 34°01' W 119°41'0 0.0
2017-Sep-12 01:19N 34°01' W 119°41'0 0.0
2017-Sep-12 00:58N 34°01' W 119°41'0 0.0
2017-Sep-12 00:28N 34°01' W 119°41'0 0.0
2017-Sep-11 23:58N 34°01' W 119°41'1 2.9
2017-Sep-11 23:27N 34°03' W 119°41'2 5.2
2017-Sep-11 23:00N 34°05' W 119°41'2 4.4
2017-Sep-11 22:29N 34°07' W 119°41'3 5.3
2017-Sep-11 21:58N 34°10' W 119°41'2 4.6
2017-Sep-11 21:27N 34°12' W 119°41'3 4.6
2017-Sep-11 20:44N 34°16' W 119°42'1 3.6
2017-Sep-11 20:30N 34°16' W 119°41'3 4.2
2017-Sep-11 19:52N 34°19' W 119°42'2 3.0
2017-Sep-11 19:08N 34°21' W 119°41'0 2.5
2017-Sep-11 18:57N 34°22' W 119°41'2 3.0
2017-Sep-11 18:23N 34°23' W 119°41'1 1.5
2017-Sep-11 17:54N 34°24' W 119°41'1 0.0
2017-Sep-10 17:10N 34°24' W 119°41'0 0.1
2017-Sep-10 16:48N 34°24' W 119°42'1 0.1
2017-Sep-10 05:38N 34°25' W 119°41'0 0.0
2017-Sep-10 05:23N 34°25' W 119°41'0 0.0
2017-Sep-10 04:08N 34°25' W 119°41'0 0.0
2017-Sep-10 03:56N 34°25' W 119°41'0 0.0
2017-Sep-10 02:47N 34°25' W 119°41'0 0.0
2017-Sep-10 02:14N 34°25' W 119°41'  

Dump ship's entire track history